Time;durP1;ratioP1;P1;durP2;ratioP2;P2;SDS_P1;SDS_P2;PMS_P1;PMS_P2;Temp;Humidity;BMP_temperature;BMP_pressure;BME280_temperature;BME280_humidity;BME280_pressure;Samples;Min_cycle;Max_cycle;Signal;HPM_P1;HPM_P2
2021/06/16 00:01:47;;;;;;;1.00;0.95;;;23.90;99.90;;;;;;5084975;28;20062;-58
2021/06/16 00:04:12;;;;;;;0.80;0.77;;;24.00;99.90;;;;;;5084398;28;20024;-58
2021/06/16 00:06:38;;;;;;;1.17;0.80;;;24.10;99.90;;;;;;5083297;28;20468;-58
2021/06/16 00:09:05;;;;;;;7.05;0.90;;;24.10;99.90;;;;;;5083898;28;20487;-58
2021/06/16 00:11:32;;;;;;;1.15;0.98;;;24.20;99.90;;;;;;5084886;28;20631;-58
2021/06/16 00:13:59;;;;;;;0.73;0.73;;;24.10;99.90;;;;;;5084579;28;20379;-58
2021/06/16 00:16:26;;;;;;;0.70;0.70;;;24.20;99.90;;;;;;5084507;28;20504;-58
2021/06/16 00:18:52;;;;;;;1.17;0.82;;;24.10;99.90;;;;;;5080758;28;20051;-57
2021/06/16 00:21:20;;;;;;;0.70;0.70;;;24.10;99.90;;;;;;5065043;28;20032;-58
2021/06/16 00:23:46;;;;;;;0.80;0.80;;;24.10;99.90;;;;;;5068816;28;20024;-58
2021/06/16 00:26:11;;;;;;;0.70;0.70;;;24.00;99.90;;;;;;5084395;28;20063;-58
2021/06/16 00:28:38;;;;;;;0.80;0.70;;;24.00;99.90;;;;;;5083498;28;20025;-58
2021/06/16 00:31:04;;;;;;;0.90;0.80;;;24.00;99.90;;;;;;5084541;28;20047;-58
2021/06/16 00:33:31;;;;;;;1.48;0.82;;;24.00;99.90;;;;;;5084838;28;20028;-58
2021/06/16 00:35:58;;;;;;;0.93;0.70;;;24.00;99.90;;;;;;5071070;28;20028;-58
2021/06/16 00:38:24;;;;;;;1.10;1.00;;;24.10;99.90;;;;;;5064423;28;20062;-58
2021/06/16 00:40:50;;;;;;;0.70;0.70;;;24.10;99.90;;;;;;5064072;28;20056;-58
2021/06/16 00:43:17;;;;;;;0.90;0.73;;;24.10;99.90;;;;;;5064888;28;20032;-58
2021/06/16 00:45:43;;;;;;;0.90;0.80;;;24.10;99.90;;;;;;5063505;28;20016;-58
2021/06/16 00:48:08;;;;;;;0.80;0.80;;;24.10;99.90;;;;;;5064205;28;20139;-58
2021/06/16 00:50:37;;;;;;;0.70;0.68;;;23.90;99.90;;;;;;5064791;28;20084;-57
2021/06/16 00:53:08;;;;;;;1.00;0.55;;;24.00;99.90;;;;;;5067207;28;20040;-58
2021/06/16 00:55:39;;;;;;;0.60;0.60;;;24.10;99.90;;;;;;5067795;28;20556;-58
2021/06/16 00:58:10;;;;;;;0.60;0.60;;;24.20;99.90;;;;;;5067530;28;20085;-58
2021/06/16 01:01:01;;;;;;;1.13;0.82;;;24.20;99.90;;;;;;5068117;28;20017;-58
2021/06/16 01:03:34;;;;;;;0.77;0.70;;;24.40;99.90;;;;;;5067899;28;20036;-58
2021/06/16 01:06:21;;;;;;;1.30;0.80;;;24.50;99.90;;;;;;5067167;28;20027;-58
2021/06/16 01:09:12;;;;;;;1.33;1.23;;;24.60;99.90;;;;;;5066712;28;20563;-58
2021/06/16 01:11:59;;;;;;;1.00;0.80;;;24.50;99.90;;;;;;5067260;28;20016;-58
2021/06/16 01:14:34;;;;;;;0.70;0.68;;;24.50;99.90;;;;;;5067968;28;20498;-58
2021/06/16 01:17:03;;;;;;;1.05;0.80;;;24.50;99.90;;;;;;5067422;28;20029;-58
2021/06/16 01:19:53;;;;;;;1.10;0.93;;;24.40;99.90;;;;;;5076176;28;20036;-58
2021/06/16 01:22:25;;;;;;;1.27;1.00;;;24.20;99.90;;;;;;5088037;28;20012;-58
2021/06/16 01:24:54;;;;;;;1.33;0.90;;;24.30;99.90;;;;;;5087223;28;20051;-58
2021/06/16 01:27:21;;;;;;;1.02;0.82;;;24.20;99.90;;;;;;5087539;28;20444;-58
2021/06/16 01:29:48;;;;;;;1.10;0.93;;;24.20;99.90;;;;;;5088419;28;20107;-58
2021/06/16 01:32:15;;;;;;;0.90;0.80;;;24.20;99.90;;;;;;5087540;28;20036;-58
2021/06/16 01:34:41;;;;;;;1.00;0.90;;;24.00;99.90;;;;;;5087137;28;20032;-58
2021/06/16 01:37:08;;;;;;;0.98;0.90;;;24.00;99.90;;;;;;5078222;28;20126;-58
2021/06/16 01:39:36;;;;;;;1.35;0.90;;;24.10;99.90;;;;;;5067635;28;20031;-58
2021/06/16 01:42:08;;;;;;;1.00;1.00;;;23.90;99.90;;;;;;5066891;28;20099;-58
2021/06/16 01:44:35;;;;;;;1.00;0.90;;;23.80;99.90;;;;;;5067044;28;20029;-58
2021/06/16 01:47:02;;;;;;;1.10;1.00;;;23.80;99.90;;;;;;5066902;28;20525;-58
2021/06/16 01:49:29;;;;;;;1.33;0.93;;;23.90;99.90;;;;;;5066617;28;20123;-58
2021/06/16 01:51:58;;;;;;;1.15;1.05;;;23.90;99.90;;;;;;5075363;28;20060;-58
2021/06/16 01:54:27;;;;;;;0.73;0.73;;;23.90;99.90;;;;;;5073008;28;20055;-58
2021/06/16 01:56:54;;;;;;;1.40;1.30;;;23.70;99.90;;;;;;5086182;28;20028;-58
2021/06/16 01:59:21;;;;;;;1.52;1.42;;;23.80;99.90;;;;;;5087176;28;20339;-58
2021/06/16 02:01:49;;;;;;;1.00;1.00;;;23.80;99.90;;;;;;5086170;28;20024;-58
2021/06/16 02:04:15;;;;;;;1.55;1.20;;;23.60;99.90;;;;;;5067218;28;20380;-58
2021/06/16 02:06:44;;;;;;;1.10;1.08;;;23.60;99.90;;;;;;5065842;28;20545;-58
2021/06/16 02:09:13;;;;;;;1.70;1.13;;;23.60;99.90;;;;;;5066600;28;20021;-58
2021/06/16 02:11:42;;;;;;;1.40;1.30;;;23.50;99.90;;;;;;5067373;28;20024;-57
2021/06/16 02:14:12;;;;;;;1.30;1.05;;;23.40;99.90;;;;;;5067026;28;20074;-57
2021/06/16 02:16:47;;;;;;;1.70;1.23;;;23.50;99.90;;;;;;5067128;28;20025;-58
2021/06/16 02:19:20;;;;;;;1.27;1.17;;;23.40;99.90;;;;;;5065896;28;20506;-58
2021/06/16 02:21:46;;;;;;;1.27;1.10;;;23.40;99.90;;;;;;5066139;28;20025;-58
2021/06/16 02:24:13;;;;;;;1.30;1.20;;;23.30;99.90;;;;;;5066577;28;20384;-58
2021/06/16 02:26:39;;;;;;;1.20;1.08;;;23.30;99.90;;;;;;5066622;28;20032;-58
2021/06/16 02:29:09;;;;;;;1.10;1.00;;;23.20;99.90;;;;;;5077315;28;20036;-58
2021/06/16 02:31:36;;;;;;;1.45;1.13;;;23.10;99.90;;;;;;5086212;28;20521;-58
2021/06/16 02:34:03;;;;;;;1.20;1.10;;;23.00;99.90;;;;;;5086063;28;20056;-58
2021/06/16 02:36:34;;;;;;;2.10;1.20;;;23.00;99.90;;;;;;5074841;28;20168;-58
2021/06/16 02:39:07;;;;;;;2.22;1.10;;;22.80;99.90;;;;;;5065743;28;20200;-58
2021/06/16 02:41:35;;;;;;;1.60;0.93;;;22.80;99.90;;;;;;5065954;28;20059;-58
2021/06/16 02:44:03;;;;;;;1.20;1.10;;;23.00;99.90;;;;;;5065600;28;20950;-58
2021/06/16 02:46:30;;;;;;;1.20;1.10;;;22.90;99.90;;;;;;5065691;28;20031;-58
2021/06/16 02:48:57;;;;;;;2.15;1.08;;;22.80;99.90;;;;;;5065163;28;20039;-58
2021/06/16 02:51:23;;;;;;;1.20;0.85;;;22.70;99.90;;;;;;5065733;28;20032;-58
2021/06/16 02:53:50;;;;;;;1.65;1.17;;;22.70;99.90;;;;;;5065215;28;20031;-58
2021/06/16 02:56:17;;;;;;;1.23;1.10;;;22.70;99.90;;;;;;5071368;28;20082;-58
2021/06/16 02:58:46;;;;;;;1.70;1.50;;;22.80;99.90;;;;;;5085145;28;20055;-58
2021/06/16 03:01:17;;;;;;;1.20;1.05;;;22.80;99.90;;;;;;5085635;28;20067;-58
2021/06/16 03:03:46;;;;;;;1.40;1.15;;;22.70;99.90;;;;;;5068171;28;20028;-58
2021/06/16 03:06:15;;;;;;;1.90;1.40;;;22.70;99.90;;;;;;5065338;28;20423;-58
2021/06/16 03:08:43;;;;;;;1.77;1.00;;;22.60;99.90;;;;;;5064679;28;20024;-58
2021/06/16 03:11:10;;;;;;;2.85;1.38;;;22.60;99.90;;;;;;5066018;28;20024;-58
2021/06/16 03:13:36;;;;;;;1.45;1.10;;;22.50;99.90;;;;;;5065388;28;20040;-58
2021/06/16 03:16:03;;;;;;;1.80;1.27;;;22.20;99.90;;;;;;5064995;28;20499;-58
2021/06/16 03:18:29;;;;;;;1.50;1.17;;;22.30;99.90;;;;;;5065265;28;20393;-57
2021/06/16 03:20:58;;;;;;;1.20;1.10;;;22.30;99.90;;;;;;5065064;28;20133;-58
2021/06/16 03:23:26;;;;;;;1.33;1.20;;;22.50;99.90;;;;;;5065187;28;20078;-58
2021/06/16 03:25:57;;;;;;;1.15;1.10;;;22.30;99.90;;;;;;5064741;28;20040;-58
2021/06/16 03:28:28;;;;;;;1.77;1.27;;;22.30;99.90;;;;;;5065087;28;20402;-58
2021/06/16 03:30:59;;;;;;;1.98;1.05;;;22.20;99.90;;;;;;5064256;28;20506;-57
2021/06/16 03:33:25;;;;;;;2.15;1.33;;;22.20;99.90;;;;;;5064747;28;20704;-58
2021/06/16 03:35:52;;;;;;;1.52;1.15;;;22.20;99.90;;;;;;5064637;28;20029;-58
2021/06/16 03:38:18;;;;;;;1.35;1.25;;;22.20;99.90;;;;;;5064930;28;20601;-58
2021/06/16 03:40:45;;;;;;;0.77;0.77;;;22.20;99.90;;;;;;5064760;28;20029;-59
2021/06/16 03:43:11;;;;;;;1.25;1.00;;;22.10;99.90;;;;;;5065650;28;20056;-58
2021/06/16 03:45:40;;;;;;;1.92;1.20;;;22.10;99.90;;;;;;5065514;28;20017;-57
2021/06/16 03:48:07;;;;;;;2.53;1.20;;;22.10;99.90;;;;;;5064569;28;20051;-58
2021/06/16 03:50:36;;;;;;;1.33;1.20;;;22.10;99.90;;;;;;5070300;28;20111;-57
2021/06/16 03:53:02;;;;;;;1.20;1.10;;;22.00;99.90;;;;;;5084513;28;20035;-57
2021/06/16 03:55:29;;;;;;;1.20;1.10;;;22.10;99.90;;;;;;5084231;28;20024;-58
2021/06/16 03:57:56;;;;;;;1.13;1.02;;;22.00;99.90;;;;;;5082752;28;20540;-58
2021/06/16 04:00:23;;;;;;;1.30;1.20;;;21.80;99.90;;;;;;5084600;28;20063;-58
2021/06/16 04:02:50;;;;;;;1.30;1.20;;;21.80;99.90;;;;;;5084355;28;20517;-58
2021/06/16 04:05:17;;;;;;;1.58;1.42;;;21.90;99.90;;;;;;5084390;28;20032;-58
2021/06/16 04:07:48;;;;;;;1.63;1.52;;;22.00;99.90;;;;;;5084492;28;20036;-58
2021/06/16 04:10:14;;;;;;;1.92;1.73;;;22.00;99.90;;;;;;5086380;28;20051;-58
2021/06/16 04:12:39;;;;;;;1.60;1.50;;;22.10;99.90;;;;;;5085657;28;20028;-57
2021/06/16 04:15:06;;;;;;;2.40;1.58;;;22.20;99.90;;;;;;5086096;28;20083;-58
2021/06/16 04:17:31;;;;;;;2.72;1.63;;;22.10;99.90;;;;;;5085151;28;20028;-58
2021/06/16 04:19:58;;;;;;;2.20;1.75;;;22.10;99.90;;;;;;5063717;28;20525;-58
2021/06/16 04:22:24;;;;;;;1.92;1.65;;;22.00;99.90;;;;;;5064414;28;20036;-58
2021/06/16 04:24:49;;;;;;;1.73;1.52;;;22.10;99.90;;;;;;5065810;28;20021;-58
2021/06/16 04:27:15;;;;;;;1.67;1.58;;;22.00;99.90;;;;;;5067013;28;20532;-58
2021/06/16 04:29:42;;;;;;;2.95;1.85;;;22.00;99.90;;;;;;5068800;28;20110;-58
2021/06/16 04:32:09;;;;;;;2.05;1.42;;;22.10;99.90;;;;;;5068869;28;20581;-58
2021/06/16 04:34:37;;;;;;;1.67;1.42;;;22.00;99.90;;;;;;5068289;28;20573;-58
2021/06/16 04:37:04;;;;;;;1.60;1.50;;;22.00;99.90;;;;;;5068150;28;20040;-58
2021/06/16 04:39:29;;;;;;;1.90;1.70;;;21.90;99.90;;;;;;5068452;28;20162;-58
2021/06/16 04:41:55;;;;;;;2.08;1.50;;;21.80;99.90;;;;;;5068020;28;20100;-58
2021/06/16 04:44:21;;;;;;;1.88;1.67;;;21.80;99.90;;;;;;5068275;28;20506;-58
2021/06/16 04:46:49;;;;;;;2.08;1.60;;;21.90;99.90;;;;;;5067563;28;20037;-58
2021/06/16 04:49:15;;;;;;;2.03;1.73;;;21.80;99.90;;;;;;5067910;28;20025;-58
2021/06/16 04:51:41;;;;;;;2.25;1.90;;;21.70;99.90;;;;;;5068089;28;20028;-57
2021/06/16 04:54:10;;;;;;;2.55;1.90;;;21.70;99.90;;;;;;5068265;28;20028;-58
2021/06/16 04:56:37;;;;;;;1.85;1.70;;;21.50;99.90;;;;;;5067980;28;20039;-58
2021/06/16 04:59:04;;;;;;;2.03;1.75;;;21.60;99.90;;;;;;5067364;28;20013;-57
2021/06/16 05:01:30;;;;;;;2.13;1.67;;;21.50;99.90;;;;;;5067286;28;20039;-58
2021/06/16 05:03:57;;;;;;;2.70;2.10;;;21.70;99.90;;;;;;5069890;28;20671;-57
2021/06/16 05:06:22;;;;;;;2.28;1.77;;;21.90;99.90;;;;;;5087493;28;20316;-57
2021/06/16 05:08:49;;;;;;;2.67;1.70;;;22.10;99.90;;;;;;5087383;28;20047;-58
2021/06/16 05:11:15;;;;;;;1.58;1.48;;;22.30;99.90;;;;;;5088234;28;20402;-58
2021/06/16 05:13:41;;;;;;;1.52;1.38;;;22.30;99.90;;;;;;5076682;28;20276;-58
2021/06/16 05:16:06;;;;;;;1.65;1.55;;;22.40;99.90;;;;;;5067714;28;20036;-58
2021/06/16 05:18:33;;;;;;;2.20;1.38;;;22.40;99.90;;;;;;5067484;28;20402;-58
2021/06/16 05:21:00;;;;;;;1.23;1.13;;;22.40;99.90;;;;;;5067336;28;20020;-58
2021/06/16 05:23:28;;;;;;;1.60;1.30;;;22.40;99.90;;;;;;5068636;28;20016;-58
2021/06/16 05:25:54;;;;;;;1.65;1.25;;;22.30;99.90;;;;;;5079715;28;20024;-58
2021/06/16 05:28:20;;;;;;;1.95;1.35;;;22.40;99.90;;;;;;5071813;28;20021;-58
2021/06/16 05:30:46;;;;;;;1.70;1.50;;;22.40;99.90;;;;;;5077209;28;20033;-58
2021/06/16 05:33:12;;;;;;;1.40;1.27;;;22.50;99.90;;;;;;5068487;28;20020;-58
2021/06/16 05:35:37;;;;;;;1.10;1.00;;;22.60;99.90;;;;;;5068651;28;20543;-58
2021/06/16 05:38:03;;;;;;;1.58;1.30;;;22.50;99.90;;;;;;5068633;28;20367;-58
2021/06/16 05:40:29;;;;;;;1.55;1.40;;;22.60;99.90;;;;;;5088907;28;20401;-57
2021/06/16 05:42:55;;;;;;;1.45;1.33;;;22.50;99.90;;;;;;5088716;28;20438;-58
2021/06/16 05:45:21;;;;;;;1.58;1.20;;;22.60;99.90;;;;;;5088355;28;20055;-58
2021/06/16 05:47:47;;;;;;;1.90;1.48;;;22.80;99.90;;;;;;5086316;28;20077;-58
2021/06/16 05:50:13;;;;;;;1.50;1.30;;;22.80;99.90;;;;;;5071765;28;20384;-58
2021/06/16 05:52:39;;;;;;;1.48;1.30;;;22.80;99.90;;;;;;5067681;28;20541;-58
2021/06/16 05:55:06;;;;;;;2.05;1.13;;;22.80;99.90;;;;;;5078443;28;20052;-58
2021/06/16 05:57:31;;;;;;;1.50;0.98;;;22.90;99.90;;;;;;5069475;28;20025;-58
2021/06/16 05:59:57;;;;;;;3.40;1.10;;;23.00;99.90;;;;;;5069583;28;20078;-58
2021/06/16 06:02:23;;;;;;;1.10;1.00;;;23.10;99.90;;;;;;5076785;28;20020;-58
2021/06/16 06:04:48;;;;;;;1.38;1.10;;;23.10;99.90;;;;;;5067993;28;20099;-58
2021/06/16 06:07:15;;;;;;;1.00;0.90;;;23.20;99.90;;;;;;5084993;28;20607;-58
2021/06/16 06:09:41;;;;;;;0.88;0.88;;;23.20;99.90;;;;;;5081842;28;20627;-58
2021/06/16 06:12:07;;;;;;;1.02;0.93;;;23.20;99.90;;;;;;5078955;28;20027;-57
2021/06/16 06:14:33;;;;;;;1.27;1.00;;;23.30;99.90;;;;;;5072648;28;20384;-57
2021/06/16 06:16:59;;;;;;;1.27;0.95;;;23.30;99.90;;;;;;5067524;28;20020;-58
2021/06/16 06:19:24;;;;;;;1.33;0.82;;;23.40;99.90;;;;;;5068294;28;20375;-58
2021/06/16 06:21:50;;;;;;;0.85;0.85;;;23.40;99.90;;;;;;5079460;28;20028;-57
2021/06/16 06:24:17;;;;;;;1.10;1.00;;;23.50;99.90;;;;;;5069901;28;20026;-57
2021/06/16 06:26:42;;;;;;;0.90;0.80;;;23.50;99.90;;;;;;5069684;28;20025;-57
2021/06/16 06:29:08;;;;;;;1.48;1.00;;;23.50;99.90;;;;;;5068110;28;20036;-57
2021/06/16 06:31:34;;;;;;;1.17;0.95;;;23.50;99.90;;;;;;5071817;28;20434;-57
2021/06/16 06:33:59;;;;;;;1.02;0.95;;;23.50;99.90;;;;;;5074849;28;20036;-57
2021/06/16 06:36:27;;;;;;;0.90;0.90;;;23.50;99.90;;;;;;5070502;28;20044;-57
2021/06/16 06:38:52;;;;;;;0.90;0.90;;;23.50;99.90;;;;;;5070558;28;20073;-57
2021/06/16 06:41:19;;;;;;;1.10;0.90;;;23.60;99.90;;;;;;5076149;28;20032;-58
2021/06/16 06:43:46;;;;;;;1.08;0.80;;;23.70;99.90;;;;;;5069777;28;20028;-57
2021/06/16 06:46:13;;;;;;;1.15;1.05;;;23.70;99.90;;;;;;5073915;28;20023;-57
2021/06/16 06:48:38;;;;;;;0.75;0.75;;;23.60;99.90;;;;;;5070741;28;20108;-58
2021/06/16 06:51:04;;;;;;;1.08;0.93;;;23.70;99.90;;;;;;5063837;28;20111;-58
2021/06/16 06:53:30;;;;;;;0.80;0.80;;;23.80;99.90;;;;;;5063193;28;20033;-58
2021/06/16 06:55:59;;;;;;;0.60;0.60;;;23.70;99.90;;;;;;5062913;28;20120;-58
2021/06/16 06:58:25;;;;;;;1.00;0.90;;;23.80;99.90;;;;;;5065439;28;20032;-58
2021/06/16 07:00:52;;;;;;;1.05;0.70;;;23.70;99.90;;;;;;5065384;28;20403;-58
2021/06/16 07:03:18;;;;;;;0.80;0.80;;;23.90;99.90;;;;;;5065411;28;20074;-58
2021/06/16 07:05:44;;;;;;;0.73;0.70;;;24.10;99.90;;;;;;5065322;28;20025;-58
2021/06/16 07:08:10;;;;;;;0.70;0.70;;;24.20;99.90;;;;;;5066189;28;20032;-58
2021/06/16 07:10:36;;;;;;;1.65;0.88;;;24.20;99.90;;;;;;5065107;28;20039;-58
2021/06/16 07:13:03;;;;;;;0.77;0.77;;;24.30;99.90;;;;;;5064994;28;20040;-58
2021/06/16 07:15:30;;;;;;;0.98;0.85;;;24.20;99.90;;;;;;5065201;28;20103;-58
2021/06/16 07:17:57;;;;;;;0.63;0.60;;;24.30;99.90;;;;;;5065337;28;20032;-58
2021/06/16 07:20:23;;;;;;;1.08;0.98;;;24.40;99.90;;;;;;5065264;28;20020;-58
2021/06/16 07:22:49;;;;;;;0.95;0.90;;;24.40;99.90;;;;;;5065052;28;20132;-58
2021/06/16 07:25:18;;;;;;;0.95;0.70;;;24.50;99.90;;;;;;5065311;28;20283;-58
2021/06/16 07:27:45;;;;;;;0.82;0.77;;;24.30;99.90;;;;;;5064927;28;20079;-58
2021/06/16 07:30:11;;;;;;;0.90;0.70;;;24.40;99.90;;;;;;5065712;28;20028;-58
2021/06/16 07:32:37;;;;;;;1.00;0.70;;;24.30;99.90;;;;;;5065617;28;20017;-58
2021/06/16 07:35:03;;;;;;;1.98;0.70;;;24.50;99.90;;;;;;5064730;28;20020;-58
2021/06/16 07:37:29;;;;;;;0.70;0.70;;;24.60;99.90;;;;;;5046948;28;20024;-58
2021/06/16 07:39:55;;;;;;;0.70;0.70;;;24.70;99.90;;;;;;5064328;28;20569;-58
2021/06/16 07:42:21;;;;;;;0.50;0.50;;;24.90;99.90;;;;;;5065085;28;20025;-58
2021/06/16 07:44:48;;;;;;;0.60;0.60;;;24.80;99.90;;;;;;5064447;28;20482;-58
2021/06/16 07:47:14;;;;;;;0.60;0.60;;;24.80;99.90;;;;;;5065042;28;20017;-58
2021/06/16 07:49:39;;;;;;;0.50;0.50;;;24.90;99.90;;;;;;5064298;28;20024;-58
2021/06/16 07:52:05;;;;;;;1.00;0.40;;;25.00;99.90;;;;;;5065485;28;20024;-58
2021/06/16 07:54:31;;;;;;;0.65;0.65;;;25.10;99.90;;;;;;5064744;28;20074;-58
2021/06/16 07:56:56;;;;;;;0.63;0.50;;;25.10;99.90;;;;;;5063836;28;20086;-58
2021/06/16 07:59:23;;;;;;;0.40;0.40;;;25.20;99.90;;;;;;5064019;28;20024;-58
2021/06/16 08:01:49;;;;;;;0.50;0.50;;;25.30;99.90;;;;;;5064198;28;20020;-58
2021/06/16 08:04:16;;;;;;;0.40;0.40;;;25.30;99.90;;;;;;5064824;28;20032;-58
2021/06/16 08:06:42;;;;;;;0.68;0.68;;;25.40;99.90;;;;;;5062979;28;20103;-58
2021/06/16 08:09:07;;;;;;;0.30;0.30;;;25.40;99.90;;;;;;5065558;28;20040;-58
2021/06/16 08:11:33;;;;;;;0.40;0.40;;;25.50;99.90;;;;;;5065438;28;20103;-58
2021/06/16 08:13:59;;;;;;;0.70;0.50;;;25.50;99.90;;;;;;5064326;28;20538;-58
2021/06/16 08:16:25;;;;;;;0.43;0.43;;;25.60;99.90;;;;;;5064182;28;20024;-58
2021/06/16 08:18:51;;;;;;;0.30;0.30;;;25.70;99.90;;;;;;5064514;28;20028;-58
2021/06/16 08:21:18;;;;;;;0.50;0.50;;;25.70;99.90;;;;;;5064547;28;20104;-58
2021/06/16 08:23:45;;;;;;;0.40;0.40;;;25.80;99.90;;;;;;5064029;28;20184;-58
2021/06/16 08:26:12;;;;;;;0.50;0.50;;;25.80;99.90;;;;;;5063827;28;20291;-59
2021/06/16 08:28:38;;;;;;;0.47;0.47;;;25.80;99.90;;;;;;5064313;28;20414;-59
2021/06/16 08:31:04;;;;;;;1.30;0.52;;;25.90;99.90;;;;;;5064404;28;20032;-58
2021/06/16 08:33:30;;;;;;;0.40;0.40;;;25.90;99.90;;;;;;5064605;28;20021;-58
2021/06/16 08:35:57;;;;;;;0.60;0.60;;;26.00;99.90;;;;;;5063706;28;20025;-58
2021/06/16 08:38:22;;;;;;;0.50;0.50;;;26.10;99.90;;;;;;5064806;28;20029;-58
2021/06/16 08:40:48;;;;;;;0.40;0.40;;;26.10;99.90;;;;;;5064384;28;20033;-58
2021/06/16 08:43:14;;;;;;;0.40;0.40;;;26.20;99.90;;;;;;5063694;28;20165;-58
2021/06/16 08:45:42;;;;;;;0.55;0.55;;;26.10;99.90;;;;;;5064073;28;20024;-58
2021/06/16 08:48:09;;;;;;;0.60;0.50;;;26.20;99.90;;;;;;5064115;28;20119;-58
2021/06/16 08:50:36;;;;;;;0.50;0.50;;;26.20;99.90;;;;;;5064543;28;20058;-59
2021/06/16 08:53:03;;;;;;;0.50;0.50;;;26.10;99.90;;;;;;5063421;28;20028;-58
2021/06/16 08:55:28;;;;;;;0.50;0.50;;;26.20;99.90;;;;;;5063875;28;20406;-58
2021/06/16 08:57:55;;;;;;;0.40;0.40;;;26.30;99.90;;;;;;5064155;28;20028;-58
2021/06/16 09:00:22;;;;;;;0.50;0.50;;;26.40;99.90;;;;;;5063856;28;20033;-58
2021/06/16 09:02:48;;;;;;;0.88;0.60;;;26.50;99.90;;;;;;5062659;28;20155;-59
2021/06/16 09:05:14;;;;;;;1.00;1.00;;;26.50;99.90;;;;;;5064115;28;20096;-58
2021/06/16 09:07:42;;;;;;;0.88;0.80;;;26.40;99.90;;;;;;5068190;28;20040;-57
2021/06/16 09:10:10;;;;;;;1.98;1.60;;;26.30;99.90;;;;;;5065593;28;20025;-59
2021/06/16 09:12:44;;;;;;;2.28;1.85;;;26.40;99.90;;;;;;5071433;28;20046;-60
2021/06/16 09:15:19;;;;;;;1.52;1.30;;;26.30;99.90;;;;;;5082040;28;20600;-59
2021/06/16 09:18:03;;;;;;;1.35;1.25;;;26.40;99.90;;;;;;5072065;28;20153;-60
2021/06/16 09:20:29;;;;;;;;;;;26.60;99.90;;;;;;5075872;28;20569;-59
2021/06/16 09:23:16;;;;;;;1.27;1.17;;;26.60;99.90;;;;;;5072346;28;19956;-60
2021/06/16 09:25:43;;;;;;;1.30;1.17;;;26.70;99.90;;;;;;5066488;28;20453;-59
2021/06/16 09:28:09;;;;;;;5.00;2.08;;;26.70;99.90;;;;;;5070124;28;20028;-59
2021/06/16 09:30:43;;;;;;;1.50;1.40;;;26.70;99.90;;;;;;5067047;28;20482;-60
2021/06/16 09:33:16;;;;;;;2.20;1.77;;;26.70;99.90;;;;;;5085490;28;20020;-60
2021/06/16 09:35:48;;;;;;;1.57;1.47;;;26.90;99.90;;;;;;5080072;28;20040;-59
2021/06/16 09:38:26;;;;;;;1.25;0.77;;;27.00;99.90;;;;;;5066926;28;20052;-60
2021/06/16 09:40:54;;;;;;;0.98;0.93;;;27.00;99.90;;;;;;5066494;28;20107;-59
2021/06/16 09:43:21;;;;;;;1.63;1.00;;;27.10;99.90;;;;;;5065833;28;20025;-60
2021/06/16 09:45:53;;;;;;;1.95;1.00;;;27.20;99.90;;;;;;5067272;28;20516;-59
2021/06/16 09:48:31;;;;;;;1.10;1.00;;;27.30;99.90;;;;;;5075103;28;20429;-59
2021/06/16 09:51:25;;;;;;;1.02;0.93;;;27.50;99.90;;;;;;5076654;28;20035;-59
2021/06/16 09:54:20;;;;;;;0.63;0.63;;;27.50;99.90;;;;;;5073806;28;20035;-60
2021/06/16 09:56:53;;;;;;;1.45;0.80;;;27.50;99.90;;;;;;5088476;28;20032;-60
2021/06/16 09:59:43;;;;;;;0.60;0.60;;;27.50;99.90;;;;;;5082896;28;20020;-58
2021/06/16 10:02:23;;;;;;;0.75;0.75;;;27.40;99.90;;;;;;5074571;28;20039;-60
2021/06/16 10:05:00;;;;;;;0.50;0.50;;;27.60;99.90;;;;;;5067424;28;20036;-59
2021/06/16 10:07:27;;;;;;;0.70;0.70;;;27.70;99.90;;;;;;5067786;28;20060;-60
2021/06/16 10:09:56;;;;;;;0.95;0.95;;;27.60;99.90;;;;;;5069892;28;20025;-60
2021/06/16 10:12:24;;;;;;;1.33;1.23;;;27.70;99.90;;;;;;5079094;28;20059;-60
2021/06/16 10:14:50;;;;;;;1.00;0.93;;;27.60;99.90;;;;;;5067872;28;20032;-60
2021/06/16 10:17:16;;;;;;;1.27;1.00;;;27.80;99.90;;;;;;5074102;28;20727;-59
2021/06/16 10:19:43;;;;;;;1.15;1.05;;;28.00;99.90;;;;;;5073418;28;20115;-59
2021/06/16 10:22:11;;;;;;;0.80;0.80;;;27.90;99.90;;;;;;5070206;28;20374;-59
2021/06/16 10:24:37;;;;;;;1.30;1.20;;;28.00;99.90;;;;;;5069668;28;20673;-58
2021/06/16 10:27:06;;;;;;;5.88;1.15;;;28.00;99.90;;;;;;5067343;28;20036;-59
2021/06/16 10:29:35;;;;;;;1.00;1.00;;;28.20;99.90;;;;;;5069630;28;20082;-59
2021/06/16 10:32:04;;;;;;;1.15;1.05;;;28.30;99.90;;;;;;5074895;28;20036;-60
2021/06/16 10:34:51;;;;;;;1.30;1.00;;;28.30;99.90;;;;;;5083826;28;20026;-60
2021/06/16 10:37:28;;;;;;;1.23;1.13;;;28.40;99.90;;;;;;5080000;28;20032;-58
2021/06/16 10:40:17;;;;;;;1.30;1.20;;;28.40;99.90;;;;;;5075061;28;20028;-58
2021/06/16 10:43:05;;;;;;;1.15;1.05;;;28.40;99.90;;;;;;5075739;28;20032;-58
2021/06/16 10:45:35;;;;;;;2.67;0.98;;;28.60;99.90;;;;;;5064085;28;20119;-57
2021/06/16 10:48:06;;;;;;;1.55;1.45;;;28.90;99.90;;;;;;5064151;28;20029;-57
2021/06/16 10:50:51;;;;;;;1.40;1.30;;;28.80;99.90;;;;;;5062510;28;20135;-57
2021/06/16 10:53:24;;;;;;;1.92;1.60;;;28.80;99.90;;;;;;5062569;28;20637;-57
2021/06/16 10:55:55;;;;;;;1.35;1.25;;;28.60;99.90;;;;;;5064521;28;20039;-57
2021/06/16 10:58:26;;;;;;;1.38;1.27;;;28.70;99.90;;;;;;5064908;28;20113;-58
2021/06/16 11:01:18;;;;;;;1.42;1.33;;;28.80;99.90;;;;;;5065331;28;20032;-57
2021/06/16 11:03:52;;;;;;;1.63;1.50;;;29.10;99.90;;;;;;5064765;28;20201;-58
2021/06/16 11:06:34;;;;;;;1.50;1.40;;;29.10;99.90;;;;;;5064379;28;20016;-57
2021/06/16 11:09:10;;;;;;;1.50;1.40;;;29.10;99.90;;;;;;5065580;28;20492;-57
2021/06/16 11:11:48;;;;;;;1.60;1.50;;;29.00;99.90;;;;;;5065547;28;20020;-58
2021/06/16 11:14:32;;;;;;;2.13;1.92;;;29.10;99.90;;;;;;5065770;28;20021;-57
2021/06/16 11:17:06;;;;;;;2.20;1.65;;;29.00;99.90;;;;;;5065312;28;20020;-58
2021/06/16 11:19:37;;;;;;;2.67;1.90;;;29.10;99.90;;;;;;5065075;28;20119;-58
2021/06/16 11:22:07;;;;;;;1.83;1.73;;;29.20;99.90;;;;;;5065363;28;20016;-57
2021/06/16 11:25:01;;;;;;;1.42;1.33;;;29.40;99.90;;;;;;5065016;28;20024;-58
2021/06/16 11:30:38;;;;;;;1.52;1.20;;;29.80;99.90;;;;;;5065831;28;20039;-58
2021/06/16 11:33:15;;;;;;;1.65;1.10;;;30.10;99.90;;;;;;5065081;28;20506;-58
2021/06/16 11:35:44;;;;;;;2.25;1.45;;;30.10;99.90;;;;;;5064130;28;20399;-58
2021/06/16 11:38:11;;;;;;;1.35;1.08;;;30.20;99.90;;;;;;5065058;28;20028;-58
2021/06/16 11:40:37;;;;;;;1.02;1.02;;;30.30;99.90;;;;;;5064974;28;20044;-58
2021/06/16 11:43:03;;;;;;;1.30;1.00;;;30.40;99.90;;;;;;5064915;28;20398;-57
2021/06/16 11:45:31;;;;;;;1.20;1.20;;;30.60;99.90;;;;;;5070204;28;20440;-57
2021/06/16 11:48:00;;;;;;;1.40;1.30;;;30.80;99.90;;;;;;5085276;28;20583;-57
2021/06/16 11:50:32;;;;;;;1.33;1.20;;;31.00;99.90;;;;;;5084405;28;20020;-57
2021/06/16 11:53:05;;;;;;;1.20;1.10;;;31.10;99.90;;;;;;5084221;28;20028;-57
2021/06/16 11:55:40;;;;;;;1.80;1.50;;;31.10;99.90;;;;;;5085075;28;20175;-57
2021/06/16 11:58:31;;;;;;;1.95;1.75;;;31.00;99.90;;;;;;5084608;28;20034;-58
2021/06/16 12:01:07;;;;;;;1.92;1.83;;;31.20;99.70;;;;;;5083640;28;20413;-58
2021/06/16 12:03:34;;;;;;;2.00;1.90;;;31.50;99.00;;;;;;5084829;28;20024;-57
2021/06/16 12:06:08;;;;;;;2.08;1.80;;;31.60;99.10;;;;;;5085587;28;20026;-57
2021/06/16 12:08:35;;;;;;;1.80;1.70;;;31.50;99.50;;;;;;5084485;28;20020;-58
2021/06/16 12:11:15;;;;;;;2.20;2.00;;;32.00;99.20;;;;;;5084482;28;20529;-57
2021/06/16 12:13:52;;;;;;;1.58;1.48;;;32.00;99.80;;;;;;5084301;28;20054;-58
2021/06/16 12:16:29;;;;;;;1.70;1.60;;;32.30;99.50;;;;;;5084644;28;20084;-57
2021/06/16 12:19:15;;;;;;;1.90;1.80;;;32.40;99.00;;;;;;5084899;28;20267;-58
2021/06/16 12:22:00;;;;;;;3.25;2.20;;;32.60;98.10;;;;;;5083507;28;20116;-57
2021/06/16 12:24:35;;;;;;;2.85;2.33;;;32.50;98.00;;;;;;5084363;28;20025;-58
2021/06/16 12:27:03;;;;;;;2.28;2.08;;;32.40;98.50;;;;;;5085063;28;20020;-58
2021/06/16 12:29:34;;;;;;;3.13;2.40;;;32.60;98.10;;;;;;5085101;28;20031;-58
2021/06/16 12:32:03;;;;;;;2.92;2.15;;;32.70;98.40;;;;;;5085120;28;20099;-58
2021/06/16 12:37:09;;;;;;;2.28;2.00;;;32.90;98.50;;;;;;5075035;28;20127;-58
2021/06/16 12:39:36;;;;;;;1.90;1.80;;;33.10;98.00;;;;;;5063466;28;20075;-58
2021/06/16 12:42:08;;;;;;;1.80;1.70;;;33.30;97.80;;;;;;5065240;28;20028;-58
2021/06/16 12:44:41;;;;;;;1.70;1.60;;;33.30;97.60;;;;;;5063702;28;20095;-60
2021/06/16 12:47:14;;;;;;;1.50;1.40;;;33.40;97.70;;;;;;5067226;28;20021;-59
2021/06/16 12:49:42;;;;;;;1.02;1.02;;;33.50;98.50;;;;;;5067373;28;20173;-61
2021/06/16 12:52:11;;;;;;;1.40;1.30;;;33.80;97.80;;;;;;5078185;28;20212;-60
2021/06/16 12:54:45;;;;;;;1.58;1.38;;;33.80;97.70;;;;;;5070795;28;20383;-59
2021/06/16 12:57:22;;;;;;;2.35;1.90;;;33.80;97.60;;;;;;5084848;28;20028;-61
2021/06/16 12:59:52;;;;;;;2.92;2.10;;;33.70;97.40;;;;;;5071221;28;20096;-61
2021/06/16 13:02:34;;;;;;;2.50;2.10;;;33.60;97.80;;;;;;5066216;28;20028;-60
2021/06/16 13:05:07;;;;;;;3.00;2.60;;;33.80;97.80;;;;;;5067749;28;20024;-60